Time;durP1;ratioP1;P1;durP2;ratioP2;P2;SDS_P1;SDS_P2;PMS_P1;PMS_P2;Temp;Humidity;BMP_temperature;BMP_pressure;BME280_temperature;BME280_humidity;BME280_pressure;Samples;Min_cycle;Max_cycle;Signal;HPM_P1;HPM_P2
2023/01/29 00:04:21;;;;;;;1999.90;999.90;;;;;;;0.60;97.80;102936.63;10456320;28;20131;-63
2023/01/29 00:09:23;;;;;;;1999.90;999.90;;;;;;;0.64;99.62;102941.03;10460159;28;20056;-63
2023/01/29 00:14:26;;;;;;;1999.90;999.90;;;;;;;0.90;99.04;102930.28;10458739;28;20056;-63
2023/01/29 00:19:28;;;;;;;1999.90;999.90;;;;;;;0.91;98.88;102929.47;10456269;28;20048;-62
2023/01/29 00:24:31;;;;;;;1999.90;999.90;;;;;;;0.94;97.84;102929.47;10457390;28;20453;-62
2023/01/29 00:29:33;;;;;;;1999.90;999.90;;;;;;;0.66;96.09;102923.88;10456355;28;20140;-63
2023/01/29 00:34:36;;;;;;;1999.90;999.90;;;;;;;0.61;97.78;102915.19;10458529;28;20079;-62
2023/01/29 00:39:39;;;;;;;1999.90;999.90;;;;;;;0.66;98.58;102918.72;10459191;28;20060;-63
2023/01/29 00:44:58;;;;;;;1999.90;999.90;;;;;;;0.66;97.49;102904.97;10456706;28;20057;-62
2023/01/29 00:50:06;;;;;;;1999.90;999.90;;;;;;;0.81;95.62;102888.84;10455649;28;20053;-63
2023/01/29 00:55:09;;;;;;;1999.90;999.90;;;;;;;0.46;96.21;102883.97;10456190;28;20459;-62
2023/01/29 01:00:15;;;;;;;1999.90;999.90;;;;;;;0.28;96.41;102889.66;10456437;28;20049;-63
2023/01/29 01:05:18;;;;;;;1999.90;999.90;;;;;;;0.35;97.87;102883.75;10455351;28;20053;-63
2023/01/29 01:10:29;;;;;;;1999.90;999.90;;;;;;;0.46;97.99;102889.13;10455411;28;20099;-62
2023/01/29 01:15:35;;;;;;;1999.90;999.90;;;;;;;0.73;97.33;102883.59;10434905;28;20057;-63
2023/01/29 01:20:38;;;;;;;1999.90;999.90;;;;;;;0.65;95.41;102882.59;10437788;28;20052;-62
2023/01/29 01:25:41;;;;;;;1999.90;999.90;;;;;;;0.65;96.93;102890.31;10455223;28;20144;-62
2023/01/29 01:30:43;;;;;;;1999.90;999.90;;;;;;;0.62;96.86;102892.84;10455474;28;20053;-62
2023/01/29 01:35:46;;;;;;;1999.90;999.90;;;;;;;0.72;96.35;102893.03;10454854;28;20085;-62
2023/01/29 01:40:48;;;;;;;1999.90;999.90;;;;;;;0.58;96.37;102879.03;10455287;28;20049;-62
2023/01/29 01:45:50;;;;;;;1999.90;999.90;;;;;;;0.61;95.89;102883.38;10454418;28;20415;-62
2023/01/29 01:50:55;;;;;;;1999.90;999.90;;;;;;;0.55;97.99;102891.84;10455396;28;20045;-63
2023/01/29 01:56:01;;;;;;;1999.90;999.90;;;;;;;0.81;96.48;102883.69;10455091;28;20060;-62
2023/01/29 02:01:06;;;;;;;1999.90;999.90;;;;;;;0.78;95.11;102883.66;10437764;28;20053;-63
2023/01/29 02:11:30;;;;;;;1999.90;999.90;;;;;;;0.52;95.95;102889.22;10452165;28;20573;-63
2023/01/29 02:16:34;;;;;;;1999.90;999.90;;;;;;;0.46;96.38;102907.16;10455094;28;20060;-63
2023/01/29 02:22:24;;;;;;;1999.90;999.90;;;;;;;0.27;97.18;102913.66;10455224;28;20103;-63
2023/01/29 02:27:45;;;;;;;1999.90;999.90;;;;;;;0.43;96.72;102899.38;10433122;28;20049;-63
2023/01/29 02:33:13;;;;;;;1999.90;999.90;;;;;;;0.46;97.23;102896.88;10461715;28;20057;-63
2023/01/29 02:38:27;;;;;;;1999.90;999.90;;;;;;;0.31;96.63;102892.28;10458861;28;20060;-63
2023/01/29 02:43:47;;;;;;;1999.90;999.90;;;;;;;0.28;97.74;102902.53;10461234;28;20099;-63
2023/01/29 02:49:24;;;;;;;1999.90;999.90;;;;;;;0.22;97.76;102890.41;10461353;28;20052;-63
2023/01/29 02:54:32;;;;;;;1999.90;999.90;;;;;;;0.16;97.79;102888.56;10422582;28;20562;-62
2023/01/29 02:59:45;;;;;;;1999.90;999.90;;;;;;;0.35;97.55;102894.97;10462237;28;20056;-62
2023/01/29 03:04:52;;;;;;;1999.90;999.90;;;;;;;0.34;97.55;102898.38;10442403;28;20049;-62
2023/01/29 03:09:55;;;;;;;1999.90;999.90;;;;;;;0.41;98.93;102907.06;10460126;28;20053;-63
2023/01/29 03:15:11;;;;;;;1999.90;999.90;;;;;;;0.52;98.58;102904.69;10460371;28;20080;-63
2023/01/29 03:20:17;;;;;;;1999.90;999.90;;;;;;;0.50;98.35;102901.22;10446619;28;20056;-63
2023/01/29 03:36:36;;;;;;;1999.90;999.90;;;;;;;0.40;97.46;102874.41;10436502;28;20053;-62
2023/01/29 03:41:55;;;;;;;1999.90;999.90;;;;;;;0.46;99.02;102864.22;10458300;28;20053;-63
2023/01/29 03:47:25;;;;;;;1999.90;999.90;;;;;;;0.54;97.94;102864.38;10459212;28;20056;-63
2023/01/29 03:52:41;;;;;;;1999.90;999.90;;;;;;;0.34;98.82;102856.28;10459025;28;20064;-63
2023/01/29 03:57:59;;;;;;;1999.90;999.90;;;;;;;0.59;98.29;102829.22;10457715;28;20515;-63
2023/01/29 04:03:10;;;;;;;1999.90;999.90;;;;;;;0.68;97.83;102842.25;10458432;28;20084;-63
2023/01/29 04:08:19;;;;;;;1999.90;999.90;;;;;;;0.81;98.27;102830.44;10458372;28;20041;-62
2023/01/29 04:13:23;;;;;;;1999.90;999.90;;;;;;;0.69;97.98;102825.94;10442340;28;20052;-63
2023/01/29 04:18:26;;;;;;;1999.90;999.90;;;;;;;0.85;98.99;102824.47;10457015;28;20045;-63
2023/01/29 04:23:28;;;;;;;1999.90;999.90;;;;;;;0.65;98.02;102846.47;10456948;28;20057;-62
2023/01/29 04:28:50;;;;;;;1999.90;999.90;;;;;;;0.49;98.39;102828.19;10456679;28;20056;-62
2023/01/29 04:34:10;;;;;;;1999.90;999.90;;;;;;;0.70;97.61;102816.50;10457911;28;20057;-63
2023/01/29 04:39:20;;;;;;;1999.90;999.90;;;;;;;0.57;98.59;102789.63;10440799;28;20053;-62
2023/01/29 04:44:25;;;;;;;1999.90;999.90;;;;;;;0.69;98.92;102786.38;10455259;28;20491;-62
2023/01/29 04:49:41;;;;;;;1999.90;999.90;;;;;;;0.63;98.23;102787.16;10446060;28;20546;-63
2023/01/29 04:55:07;;;;;;;1999.90;999.90;;;;;;;0.62;97.74;102785.41;10439039;28;20053;-63
2023/01/29 05:00:33;;;;;;;1999.90;999.90;;;;;;;0.69;98.56;102794.13;10456432;28;20053;-62
2023/01/29 05:05:37;;;;;;;1999.90;999.90;;;;;;;0.78;97.50;102793.41;10457101;28;20058;-62
2023/01/29 05:10:39;;;;;;;1999.90;999.90;;;;;;;0.80;97.48;102771.09;10465732;28;20107;-63
2023/01/29 05:15:49;;;;;;;1999.90;999.90;;;;;;;0.69;97.10;102770.91;10438228;28;20092;-62
2023/01/29 05:20:52;;;;;;;1999.90;999.90;;;;;;;0.65;97.96;102779.44;10455229;28;20530;-62
2023/01/29 05:25:56;;;;;;;1999.90;999.90;;;;;;;0.65;97.70;102771.72;10436796;28;20049;-63
2023/01/29 05:30:58;;;;;;;1999.90;999.90;;;;;;;0.68;98.86;102767.47;10439254;28;20052;-63
2023/01/29 05:36:01;;;;;;;1999.90;999.90;;;;;;;0.49;98.74;102776.63;10456489;28;20080;-62
2023/01/29 05:41:03;;;;;;;1999.90;999.90;;;;;;;0.60;99.65;102779.38;10454591;28;20053;-62
2023/01/29 05:46:06;;;;;;;1999.90;999.90;;;;;;;0.66;99.23;102786.34;10454234;28;20053;-62
2023/01/29 05:51:08;;;;;;;1999.90;999.90;;;;;;;0.48;98.66;102803.25;10455542;28;20056;-62
2023/01/29 05:56:10;;;;;;;1999.90;999.90;;;;;;;0.52;98.48;102810.19;10455732;28;20060;-62
2023/01/29 06:01:18;;;;;;;1999.90;999.90;;;;;;;0.49;98.69;102802.41;10454699;28;20061;-62
2023/01/29 06:06:21;;;;;;;1999.90;999.90;;;;;;;0.63;98.67;102801.78;10460119;28;20106;-62
2023/01/29 06:11:23;;;;;;;1999.90;999.90;;;;;;;0.63;98.87;102799.19;10460975;28;20500;-62
2023/01/29 06:16:25;;;;;;;1999.90;999.90;;;;;;;0.82;99.42;102783.16;10462111;28;20458;-62
2023/01/29 06:21:28;;;;;;;1999.90;999.90;;;;;;;0.74;98.97;102769.31;10463758;28;20051;-63
2023/01/29 06:26:30;;;;;;;1999.90;999.90;;;;;;;0.76;98.77;102769.28;10461662;28;20455;-63
2023/01/29 06:31:33;;;;;;;1999.90;999.90;;;;;;;0.81;98.32;102770.22;10460997;28;20053;-62
2023/01/29 06:36:40;;;;;;;1999.90;999.90;;;;;;;0.79;98.61;102767.66;10451880;28;20049;-62
2023/01/29 06:41:44;;;;;;;1999.90;999.90;;;;;;;1.06;96.33;102768.88;10459987;28;20447;-63
2023/01/29 06:46:46;;;;;;;1999.90;999.90;;;;;;;0.92;97.46;102766.09;10460214;28;20052;-62
2023/01/29 06:51:49;;;;;;;1999.90;999.90;;;;;;;0.75;97.90;102747.81;10460050;28;20532;-63
2023/01/29 06:56:51;;;;;;;1999.90;999.90;;;;;;;0.80;98.19;102764.22;10460502;28;20107;-62
2023/01/29 07:01:54;;;;;;;1999.90;999.90;;;;;;;1.22;97.87;102768.22;10455418;28;20056;-62
2023/01/29 07:06:57;;;;;;;1999.90;999.90;;;;;;;1.02;97.28;102769.69;10458996;28;20085;-62
2023/01/29 07:12:00;;;;;;;1999.90;999.90;;;;;;;1.06;97.04;102781.75;10458337;28;20064;-62
2023/01/29 07:17:02;;;;;;;1999.90;999.90;;;;;;;1.04;97.43;102776.63;10460967;28;20057;-62
2023/01/29 07:22:05;;;;;;;1999.90;999.90;;;;;;;0.97;96.79;102761.88;10459367;28;20053;-62
2023/01/29 07:27:07;;;;;;;1999.90;999.90;;;;;;;0.86;97.76;102758.28;10461149;28;20098;-63
2023/01/29 07:32:09;;;;;;;1999.90;999.90;;;;;;;1.04;98.50;102755.09;10435708;28;20098;-63
2023/01/29 07:37:11;;;;;;;1999.90;999.90;;;;;;;0.86;97.32;102761.72;10464501;28;20091;-62
2023/01/29 07:42:14;;;;;;;1999.90;999.90;;;;;;;1.07;97.73;102758.56;10458984;28;20099;-63
2023/01/29 07:47:16;;;;;;;1999.90;999.90;;;;;;;1.15;97.09;102748.38;10459710;28;20408;-63
2023/01/29 07:52:18;;;;;;;1999.90;999.90;;;;;;;1.07;96.74;102762.88;10458836;28;20411;-62
2023/01/29 07:57:23;;;;;;;1999.90;999.90;;;;;;;1.10;97.55;102761.19;10459277;28;20106;-62
2023/01/29 08:02:26;;;;;;;1999.90;999.90;;;;;;;1.31;97.15;102764.91;10459472;28;20049;-62
2023/01/29 08:07:28;;;;;;;1999.90;999.90;;;;;;;1.19;96.16;102757.00;10457335;28;20057;-63
2023/01/29 08:12:31;;;;;;;1999.90;999.90;;;;;;;1.40;97.65;102744.38;10458104;28;20053;-63
2023/01/29 08:17:33;;;;;;;1999.90;999.90;;;;;;;1.34;97.33;102727.94;10459719;28;20053;-63
2023/01/29 08:22:36;;;;;;;1999.90;999.90;;;;;;;1.33;97.48;102721.03;10458908;28;20071;-62
2023/01/29 08:27:38;;;;;;;1999.90;999.90;;;;;;;1.39;96.18;102727.16;10456706;28;20049;-63
2023/01/29 08:32:40;;;;;;;1999.90;999.90;;;;;;;1.74;94.66;102721.50;10458213;28;20056;-62
2023/01/29 08:37:43;;;;;;;1999.90;999.90;;;;;;;1.58;94.09;102710.16;10457698;28;20060;-62
2023/01/29 08:42:45;;;;;;;1999.90;999.90;;;;;;;1.70;94.15;102699.09;10458948;28;20057;-62
2023/01/29 08:47:48;;;;;;;1999.90;999.90;;;;;;;1.38;94.15;102694.47;10415119;28;20080;-62
2023/01/29 08:52:53;;;;;;;1999.90;999.90;;;;;;;1.54;94.64;102715.28;10444904;28;20056;-63
2023/01/29 08:57:58;;;;;;;1999.90;999.90;;;;;;;1.61;94.67;102707.59;10455598;28;20484;-63
2023/01/29 09:03:02;;;;;;;1999.90;999.90;;;;;;;1.48;94.27;102692.84;10457892;28;20049;-63
2023/01/29 09:08:05;;;;;;;1999.90;999.90;;;;;;;1.73;94.04;102683.66;10457496;28;20049;-63
2023/01/29 09:13:07;;;;;;;1999.90;999.90;;;;;;;1.80;93.04;102694.88;10451499;28;20133;-63
2023/01/29 09:18:10;;;;;;;1999.90;999.90;;;;;;;1.85;92.34;102693.22;10427746;28;20053;-63
2023/01/29 09:23:12;;;;;;;1999.90;999.90;;;;;;;1.78;91.62;102689.72;10429925;28;20045;-62
2023/01/29 09:28:16;;;;;;;1999.90;999.90;;;;;;;2.12;92.32;102690.00;10444448;28;20045;-63
2023/01/29 09:33:19;;;;;;;1999.90;999.90;;;;;;;1.85;92.14;102703.56;10435298;28;20111;-63
2023/01/29 09:38:21;;;;;;;1999.90;999.90;;;;;;;2.40;93.12;102701.44;10437635;28;20412;-62
2023/01/29 09:43:46;;;;;;;1999.90;999.90;;;;;;;2.05;92.30;102698.53;10432470;28;20052;-63
2023/01/29 09:48:53;;;;;;;1999.90;999.90;;;;;;;2.33;93.32;102699.63;10443977;28;20542;-63
2023/01/29 09:54:11;;;;;;;1999.90;999.90;;;;;;;2.25;92.91;102695.25;10432208;28;20060;-63
2023/01/29 09:59:15;;;;;;;1999.90;999.90;;;;;;;2.39;93.18;102691.06;10416540;28;20053;-62
2023/01/29 10:04:40;;;;;;;1999.90;999.90;;;;;;;2.36;91.18;102704.84;10431282;28;20083;-62
2023/01/29 10:10:08;;;;;;;1999.90;999.90;;;;;;;2.23;93.40;102696.09;10435026;28;20387;-63
2023/01/29 10:15:27;;;;;;;1999.90;999.90;;;;;;;1.92;91.15;102689.84;10432718;28;20064;-62
2023/01/29 10:21:08;;;;;;;1999.90;999.90;;;;;;;2.51;92.83;102680.81;10458931;28;20075;-63
2023/01/29 10:26:12;;;;;;;1999.90;999.90;;;;;;;2.58;92.05;102671.38;10429982;28;20067;-63
2023/01/29 10:31:30;;;;;;;1999.90;999.90;;;;;;;2.30;90.05;102688.41;10452377;28;20055;-63
2023/01/29 10:36:59;;;;;;;1999.90;999.90;;;;;;;2.64;91.94;102673.13;10447949;28;20052;-63
2023/01/29 10:42:14;;;;;;;1999.90;999.90;;;;;;;2.57;90.15;102662.75;10405211;28;20076;-63
2023/01/29 10:47:39;;;;;;;1999.90;999.90;;;;;;;2.34;89.98;102661.75;10414156;28;20052;-63
2023/01/29 10:52:50;;;;;;;1999.90;999.90;;;;;;;2.77;90.42;102646.47;10427205;28;20084;-63
2023/01/29 10:58:16;;;;;;;1999.90;999.90;;;;;;;2.73;88.52;102644.72;10420748;23;20052;-64
2023/01/29 11:03:22;;;;;;;1999.90;999.90;;;;;;;2.81;88.92;102636.97;10446449;28;20554;-64
2023/01/29 11:08:43;;;;;;;1999.90;999.90;;;;;;;2.72;88.90;102630.06;10431857;28;20055;-64
2023/01/29 11:13:51;;;;;;;1999.90;999.90;;;;;;;2.61;87.95;102622.25;10461704;28;20389;-64
2023/01/29 11:18:58;;;;;;;1999.90;999.90;;;;;;;2.83;88.17;102607.69;10442948;28;20049;-64
2023/01/29 11:24:17;;;;;;;1999.90;999.90;;;;;;;2.69;88.45;102594.72;10444763;28;20140;-64
2023/01/29 11:30:00;;;;;;;1999.90;999.90;;;;;;;2.80;88.10;102579.22;10444979;28;20044;-64
2023/01/29 11:35:08;;;;;;;1999.90;999.90;;;;;;;2.98;86.71;102573.25;10457786;28;20049;-64
2023/01/29 11:40:36;;;;;;;1999.90;999.90;;;;;;;2.93;88.40;102565.47;10461114;28;20492;-64
2023/01/29 11:45:39;;;;;;;1999.90;999.90;;;;;;;3.15;86.13;102571.53;10444038;28;20049;-64
2023/01/29 11:50:42;;;;;;;1999.90;999.90;;;;;;;3.24;87.61;102543.94;10460737;28;20515;-64
2023/01/29 11:55:46;;;;;;;1999.90;999.90;;;;;;;2.96;87.98;102541.34;10443628;28;20052;-64
2023/01/29 12:00:54;;;;;;;1999.90;999.90;;;;;;;2.93;88.08;102525.78;10442698;28;20496;-62
2023/01/29 12:05:59;;;;;;;1999.90;999.90;;;;;;;2.91;88.81;102528.38;10460828;28;20076;-62
2023/01/29 12:11:10;;;;;;;1999.90;999.90;;;;;;;3.09;87.80;102509.44;10442891;28;20139;-62
2023/01/29 12:16:26;;;;;;;1999.90;999.90;;;;;;;3.05;88.03;102505.09;10442710;28;20106;-62
2023/01/29 12:21:54;;;;;;;1999.90;999.90;;;;;;;3.15;87.87;102487.88;10459530;28;20056;-62
2023/01/29 12:27:20;;;;;;;1999.90;999.90;;;;;;;2.97;87.06;102486.97;10459987;28;20064;-62
2023/01/29 12:32:31;;;;;;;1999.90;999.90;;;;;;;3.06;88.11;102482.66;10459692;28;20052;-61
2023/01/29 12:37:59;;;;;;;1999.90;999.90;;;;;;;3.06;88.17;102460.25;10441909;28;20053;-62
2023/01/29 12:43:11;;;;;;;1999.90;999.90;;;;;;;3.07;88.73;102461.97;10458898;28;20557;-64
2023/01/29 12:48:14;;;;;;;;;;;;;;;3.33;87.49;102453.34;10441317;28;20591;-64
2023/01/29 12:53:49;;;;;;;1999.90;999.90;;;;;;;3.33;86.97;102440.41;10441394;28;19996;-64
2023/01/29 12:58:53;;;;;;;1999.90;999.90;;;;;;;2.97;88.40;102440.38;10447804;28;20079;-64
2023/01/29 13:04:21;;;;;;;1999.90;999.90;;;;;;;2.94;88.77;102431.78;10458460;28;20064;-64
2023/01/29 13:09:27;;;;;;;1999.90;999.90;;;;;;;2.86;88.82;102424.03;10449166;28;20053;-64
2023/01/29 13:15:04;;;;;;;1999.90;999.90;;;;;;;2.91;88.81;102411.94;10440375;28;20053;-64
2023/01/29 13:20:23;;;;;;;1999.90;999.90;;;;;;;3.10;88.01;102399.00;10408754;28;20056;-64
2023/01/29 13:25:26;;;;;;;1999.90;999.90;;;;;;;3.19;88.82;102390.38;10429643;28;20060;-64
2023/01/29 13:30:33;;;;;;;1999.90;999.90;;;;;;;3.11;88.35;102382.59;10415675;28;20385;-64
2023/01/29 13:35:42;;;;;;;1999.90;999.90;;;;;;;3.07;89.93;102384.34;10426248;28;20064;-64
2023/01/29 13:40:49;;;;;;;1999.90;999.90;;;;;;;3.26;89.99;102380.00;10456670;28;20051;-64
2023/01/29 13:45:52;;;;;;;1999.90;999.90;;;;;;;3.06;89.74;102366.22;10437993;28;20057;-64
2023/01/29 13:50:56;;;;;;;1999.90;999.90;;;;;;;3.24;90.53;102355.84;10439373;28;20098;-64
2023/01/29 13:56:34;;;;;;;1999.90;999.90;;;;;;;3.15;90.68;102354.13;10438679;28;20075;-64
2023/01/29 14:01:48;;;;;;;1999.90;999.90;;;;;;;3.04;90.33;102344.66;10455623;28;20399;-65
2023/01/29 14:06:53;;;;;;;1999.90;999.90;;;;;;;3.09;90.00;102355.88;10455846;28;20459;-64
2023/01/29 14:11:56;;;;;;;1999.90;999.90;;;;;;;3.12;90.40;102355.88;10455566;28;20492;-64
2023/01/29 14:17:01;;;;;;;1999.90;999.90;;;;;;;2.95;90.16;102353.31;10438834;28;20049;-64
2023/01/29 14:22:04;;;;;;;1999.90;999.90;;;;;;;3.36;89.12;102316.09;10438845;28;20102;-64
2023/01/29 14:27:19;;;;;;;1999.90;999.90;;;;;;;3.50;89.64;102316.94;10461012;28;20056;-64
2023/01/29 14:32:26;;;;;;;1999.90;999.90;;;;;;;3.43;90.26;102323.00;10446732;28;20052;-64
2023/01/29 14:37:32;;;;;;;1999.90;999.90;;;;;;;3.21;90.38;102316.16;10463666;28;20385;-64
2023/01/29 14:43:00;;;;;;;1999.90;999.90;;;;;;;3.34;89.93;102310.09;10445849;28;20484;-64
2023/01/29 14:48:10;;;;;;;1999.90;999.90;;;;;;;3.42;90.63;102310.94;10446130;28;20056;-64
2023/01/29 14:53:44;;;;;;;1999.90;999.90;;;;;;;3.02;91.04;102308.44;10463613;28;20048;-64
2023/01/29 14:58:49;;;;;;;1999.90;999.90;;;;;;;3.07;90.60;102301.53;10445393;28;20049;-64
2023/01/29 15:04:06;;;;;;;1999.90;999.90;;;;;;;3.10;91.54;102293.75;10445751;28;20059;-64
2023/01/29 15:09:16;;;;;;;1999.90;999.90;;;;;;;3.21;91.04;102295.44;10462970;28;20049;-64
2023/01/29 15:14:28;;;;;;;1999.90;999.90;;;;;;;3.28;91.20;102294.59;10445270;28;20055;-64
2023/01/29 15:19:57;;;;;;;1999.90;999.90;;;;;;;3.25;90.55;102287.69;10445000;28;20452;-65
2023/01/29 15:25:26;;;;;;;1999.90;999.90;;;;;;;3.17;91.46;102286.84;10441090;28;20484;-64
2023/01/29 15:30:32;;;;;;;1999.90;999.90;;;;;;;3.33;91.55;102272.97;10459177;28;20060;-64
2023/01/29 15:35:39;;;;;;;1999.90;999.90;;;;;;;3.21;91.67;102273.03;10442396;28;20538;-64
2023/01/29 15:40:50;;;;;;;1999.90;999.90;;;;;;;3.20;92.10;102262.69;10444139;28;20057;-64
2023/01/29 15:45:59;;;;;;;1999.90;999.90;;;;;;;3.16;92.01;102251.44;10444108;28;20179;-64
2023/01/29 15:51:04;;;;;;;1999.90;999.90;;;;;;;3.09;92.27;102247.16;10461420;28;20102;-64
2023/01/29 15:56:11;;;;;;;1999.90;999.90;;;;;;;3.07;92.25;102239.41;10461316;28;20055;-64
2023/01/29 16:01:13;;;;;;;1999.90;999.90;;;;;;;3.21;92.42;102234.22;10442703;28;20080;-64
2023/01/29 16:06:16;;;;;;;1999.90;999.90;;;;;;;3.20;92.17;102231.63;10459720;28;20087;-64
2023/01/29 16:11:19;;;;;;;1999.90;999.90;;;;;;;3.00;92.79;102229.94;10442501;28;20045;-64
2023/01/29 16:16:24;;;;;;;1999.90;999.90;;;;;;;2.79;92.65;102223.09;10442788;28;20055;-64
2023/01/29 16:21:28;;;;;;;1999.90;999.90;;;;;;;3.02;93.36;102228.22;10441077;28;20063;-64
2023/01/29 16:26:36;;;;;;;1999.90;999.90;;;;;;;2.89;92.93;102211.00;10444595;28;20057;-64
2023/01/29 16:31:39;;;;;;;1999.90;999.90;;;;;;;3.02;92.68;102214.44;10417439;28;20061;-64
2023/01/29 16:36:48;;;;;;;1999.90;999.90;;;;;;;2.76;93.74;102208.47;10438378;28;20067;-64
2023/01/29 16:42:16;;;;;;;1999.90;999.90;;;;;;;2.94;94.33;102185.97;10457446;28;20052;-64
2023/01/29 16:47:36;;;;;;;1999.90;999.90;;;;;;;2.78;94.44;102216.22;10457627;28;20053;-64
2023/01/29 16:52:38;;;;;;;1999.90;999.90;;;;;;;2.87;93.65;102210.16;10456122;28;20049;-64
2023/01/29 16:57:41;;;;;;;1999.90;999.90;;;;;;;2.84;94.95;102203.28;10437787;28;20454;-64
2023/01/29 17:02:43;;;;;;;1999.90;999.90;;;;;;;2.98;94.65;102187.69;10437696;28;20053;-64
2023/01/29 17:07:46;;;;;;;1999.90;999.90;;;;;;;2.88;96.99;102199.81;10458267;28;20064;-64
2023/01/29 17:13:01;;;;;;;1999.90;999.90;;;;;;;2.91;98.12;102210.16;10457618;28;20052;-64
2023/01/29 17:18:04;;;;;;;1999.90;999.90;;;;;;;2.92;99.49;102190.31;10455815;28;20067;-64
2023/01/29 17:23:06;;;;;;;1999.90;999.90;;;;;;;2.76;99.55;102185.19;10454900;28;20404;-64
2023/01/29 17:28:11;;;;;;;1999.90;999.90;;;;;;;2.80;100.00;102188.63;10457757;28;20049;-64
2023/01/29 17:33:21;;;;;;;1999.90;999.90;;;;;;;2.51;100.00;102186.94;10455757;28;20393;-64
2023/01/29 17:38:24;;;;;;;1999.90;999.90;;;;;;;2.65;100.00;102178.31;10456006;28;20052;-64
2023/01/29 17:43:28;;;;;;;1999.90;999.90;;;;;;;2.60;100.00;102180.91;10454599;28;20056;-64
2023/01/29 17:48:30;;;;;;;1999.90;999.90;;;;;;;2.66;100.00;102167.97;10454754;28;20049;-64
2023/01/29 17:53:33;;;;;;;1999.90;999.90;;;;;;;2.66;100.00;102175.72;10454478;28;20056;-64
2023/01/29 17:58:47;;;;;;;1999.90;999.90;;;;;;;2.71;100.00;102178.31;10455168;28;20126;-64
2023/01/29 18:03:49;;;;;;;1999.90;999.90;;;;;;;2.78;100.00;102177.41;10455562;28;20052;-64
2023/01/29 18:08:51;;;;;;;1999.90;999.90;;;;;;;2.84;100.00;102169.66;10456689;28;20076;-64
2023/01/29 18:13:55;;;;;;;1999.90;999.90;;;;;;;2.63;100.00;102164.53;10412836;28;20053;-64
2023/01/29 18:18:57;;;;;;;1999.90;999.90;;;;;;;2.85;99.74;102160.16;10423520;28;20412;-64
2023/01/29 18:23:59;;;;;;;1999.90;999.90;;;;;;;2.75;98.89;102148.97;10455797;28;20049;-64
2023/01/29 18:29:02;;;;;;;1999.90;999.90;;;;;;;2.58;100.00;102139.53;10455687;28;20492;-64
2023/01/29 18:34:04;;;;;;;1999.90;999.90;;;;;;;2.65;99.71;102119.69;10454148;28;20053;-64
2023/01/29 18:39:07;;;;;;;1999.90;999.90;;;;;;;2.72;99.09;102115.34;10455045;28;20053;-64
2023/01/29 18:44:10;;;;;;;1999.90;999.90;;;;;;;2.82;99.86;102088.59;10455440;28;20122;-64
2023/01/29 18:49:12;;;;;;;1999.90;999.90;;;;;;;2.68;99.61;102078.31;10453224;28;20052;-65
2023/01/29 18:54:17;;;;;;;1999.90;999.90;;;;;;;2.72;100.00;102085.19;10455245;28;20492;-64
2023/01/29 18:59:19;;;;;;;1999.90;999.90;;;;;;;2.73;100.00;102070.53;10454570;28;20088;-64
2023/01/29 19:04:22;;;;;;;1999.90;999.90;;;;;;;2.78;100.00;102058.44;10454278;28;20489;-64
2023/01/29 19:09:24;;;;;;;1999.90;999.90;;;;;;;2.93;100.00;102050.59;10455105;28;20053;-65
2023/01/29 19:14:26;;;;;;;1999.90;999.90;;;;;;;2.95;100.00;102028.16;10443261;28;20057;-64
2023/01/29 19:19:29;;;;;;;1999.90;999.90;;;;;;;2.76;100.00;102032.56;10458127;28;20056;-64
2023/01/29 19:24:37;;;;;;;1999.90;999.90;;;;;;;2.87;100.00;102035.09;10459729;28;20060;-64
2023/01/29 19:29:39;;;;;;;1999.90;999.90;;;;;;;2.73;100.00;102013.63;10444535;28;20103;-64
2023/01/29 19:34:42;;;;;;;1999.90;999.90;;;;;;;2.87;100.00;102014.41;10444520;28;20060;-64
2023/01/29 19:39:44;;;;;;;1999.90;999.90;;;;;;;2.93;100.00;102005.75;10460553;28;20557;-64
2023/01/29 19:44:47;;;;;;;1999.90;999.90;;;;;;;2.95;100.00;101998.84;10460405;28;20546;-65
2023/01/29 19:49:49;;;;;;;1999.90;999.90;;;;;;;2.83;100.00;101966.16;10460956;28;20057;-65
2023/01/29 19:54:51;;;;;;;1999.90;999.90;;;;;;;2.87;100.00;101960.06;10461397;28;20061;-64
2023/01/29 19:59:54;;;;;;;1999.90;999.90;;;;;;;2.84;100.00;101949.78;10441158;28;20049;-64
2023/01/29 20:04:57;;;;;;;1999.90;999.90;;;;;;;2.90;100.00;101964.38;10461506;28;20118;-64
2023/01/29 20:10:00;;;;;;;1999.90;999.90;;;;;;;2.78;100.00;101962.75;10460580;28;20106;-64
2023/01/29 20:15:03;;;;;;;1999.90;999.90;;;;;;;2.81;100.00;101969.59;10457905;28;20067;-64
2023/01/29 20:20:06;;;;;;;1999.90;999.90;;;;;;;2.91;100.00;101966.13;10439203;28;20420;-64
2023/01/29 20:25:08;;;;;;;1999.90;999.90;;;;;;;2.97;100.00;101961.72;10454443;28;20103;-64
2023/01/29 20:30:11;;;;;;;1999.90;999.90;;;;;;;2.78;100.00;101955.81;10460005;28;20060;-64
2023/01/29 20:35:14;;;;;;;1999.90;999.90;;;;;;;3.05;100.00;101976.34;10459860;28;20053;-64
2023/01/29 20:40:17;;;;;;;1999.90;999.90;;;;;;;2.92;100.00;101940.22;10458771;28;20049;-64
2023/01/29 20:45:20;;;;;;;1999.90;999.90;;;;;;;2.90;100.00;101925.59;10440955;28;20049;-64
2023/01/29 20:50:23;;;;;;;1999.90;999.90;;;;;;;3.00;100.00;101944.50;10458653;28;20139;-65
2023/01/29 20:55:25;;;;;;;1999.90;999.90;;;;;;;2.95;100.00;101960.03;10440778;28;20451;-65
2023/01/29 21:00:28;;;;;;;1999.90;999.90;;;;;;;3.05;100.00;101942.72;10457010;28;20144;-65
2023/01/29 21:05:30;;;;;;;1999.90;999.90;;;;;;;3.18;100.00;101944.34;10457515;28;20053;-64
2023/01/29 21:10:33;;;;;;;1999.90;999.90;;;;;;;3.13;100.00;101952.13;10456618;28;20496;-65
2023/01/29 21:15:35;;;;;;;1999.90;999.90;;;;;;;3.14;100.00;101938.34;10457609;28;20060;-65
2023/01/29 21:20:37;;;;;;;1999.90;999.90;;;;;;;3.17;100.00;101950.38;10453000;28;20492;-64
2023/01/29 21:25:40;;;;;;;1999.90;999.90;;;;;;;3.19;100.00;101942.59;10457948;28;20049;-64
2023/01/29 21:30:42;;;;;;;1999.90;999.90;;;;;;;3.30;100.00;101927.84;10456427;28;20052;-64
2023/01/29 21:35:45;;;;;;;1999.90;999.90;;;;;;;3.32;100.00;101931.28;10457520;28;20053;-64
2023/01/29 21:40:47;;;;;;;1999.90;999.90;;;;;;;3.31;100.00;101937.31;10438596;28;20451;-65
2023/01/29 21:45:55;;;;;;;1999.90;999.90;;;;;;;3.37;100.00;101941.59;10456706;28;20064;-64
2023/01/29 21:50:57;;;;;;;1999.90;999.90;;;;;;;3.40;100.00;101933.81;10455994;28;20132;-64
2023/01/29 21:56:01;;;;;;;1999.90;999.90;;;;;;;3.29;100.00;101929.56;10456352;28;20060;-65
2023/01/29 22:01:03;;;;;;;1999.90;999.90;;;;;;;3.44;100.00;101943.25;10437727;28;20071;-64
2023/01/29 22:06:26;;;;;;;1999.90;999.90;;;;;;;3.34;100.00;101919.16;10456091;28;20127;-65
2023/01/29 22:11:28;;;;;;;1999.90;999.90;;;;;;;3.40;100.00;101911.34;10455681;28;20128;-64
2023/01/29 22:16:30;;;;;;;1999.90;999.90;;;;;;;3.39;100.00;101888.06;10456552;28;20053;-64
2023/01/29 22:21:32;;;;;;;1999.90;999.90;;;;;;;3.37;100.00;101856.16;10454796;28;20053;-64
2023/01/29 22:26:37;;;;;;;1999.90;999.90;;;;;;;3.39;100.00;101800.03;10456390;28;20053;-65
2023/01/29 22:31:39;;;;;;;1999.90;999.90;;;;;;;3.56;100.00;101797.25;10456120;28;20088;-64
2023/01/29 22:36:42;;;;;;;1999.90;999.90;;;;;;;3.70;100.00;101806.56;10455216;28;20061;-65
2023/01/29 22:41:44;;;;;;;1999.90;999.90;;;;;;;3.74;100.00;101822.94;10454865;28;20092;-65
2023/01/29 22:46:47;;;;;;;1999.90;999.90;;;;;;;3.49;100.00;101806.81;10458449;28;20056;-64